sensor_id;sensor_type;location;lat;lon;timestamp;P1;durP1;ratioP1;P2;durP2;ratioP2
11171;SDS011;5642;50.830;12.082;2023-03-23T00:00:03;1.25;;;0.80;;
11171;SDS011;5642;50.830;12.082;2023-03-23T00:02:31;0.68;;;0.68;;
11171;SDS011;5642;50.830;12.082;2023-03-23T00:05:01;0.90;;;0.60;;
11171;SDS011;5642;50.830;12.082;2023-03-23T00:07:29;1.48;;;0.82;;
11171;SDS011;5642;50.830;12.082;2023-03-23T00:09:55;0.70;;;0.70;;
11171;SDS011;5642;50.830;12.082;2023-03-23T00:12:26;1.42;;;0.80;;
11171;SDS011;5642;50.830;12.082;2023-03-23T00:15:00;0.63;;;0.63;;
11171;SDS011;5642;50.830;12.082;2023-03-23T00:17:27;0.75;;;0.52;;
11171;SDS011;5642;50.830;12.082;2023-03-23T00:19:54;0.60;;;0.60;;
11171;SDS011;5642;50.830;12.082;2023-03-23T00:22:21;0.70;;;0.70;;
11171;SDS011;5642;50.830;12.082;2023-03-23T00:24:50;0.60;;;0.60;;
11171;SDS011;5642;50.830;12.082;2023-03-23T00:27:17;0.60;;;0.60;;
11171;SDS011;5642;50.830;12.082;2023-03-23T00:29:43;0.63;;;0.63;;
11171;SDS011;5642;50.830;12.082;2023-03-23T00:32:14;0.60;;;0.60;;
11171;SDS011;5642;50.830;12.082;2023-03-23T00:34:42;0.80;;;0.80;;
11171;SDS011;5642;50.830;12.082;2023-03-23T00:37:09;0.60;;;0.60;;
11171;SDS011;5642;50.830;12.082;2023-03-23T00:39:36;0.52;;;0.52;;
11171;SDS011;5642;50.830;12.082;2023-03-23T00:42:04;0.60;;;0.60;;
11171;SDS011;5642;50.830;12.082;2023-03-23T00:44:31;0.60;;;0.60;;
11171;SDS011;5642;50.830;12.082;2023-03-23T00:47:01;0.50;;;0.50;;
11171;SDS011;5642;50.830;12.082;2023-03-23T00:49:28;0.50;;;0.50;;
11171;SDS011;5642;50.830;12.082;2023-03-23T00:51:55;0.60;;;0.60;;
11171;SDS011;5642;50.830;12.082;2023-03-23T00:54:22;0.70;;;0.70;;
11171;SDS011;5642;50.830;12.082;2023-03-23T00:56:51;0.57;;;0.57;;
11171;SDS011;5642;50.830;12.082;2023-03-23T00:59:17;0.57;;;0.57;;
11171;SDS011;5642;50.830;12.082;2023-03-23T01:01:44;0.60;;;0.60;;
11171;SDS011;5642;50.830;12.082;2023-03-23T01:04:12;0.60;;;0.60;;
11171;SDS011;5642;50.830;12.082;2023-03-23T01:06:40;0.50;;;0.50;;
11171;SDS011;5642;50.830;12.082;2023-03-23T01:09:10;0.60;;;0.60;;
11171;SDS011;5642;50.830;12.082;2023-03-23T01:11:48;0.90;;;0.60;;
11171;SDS011;5642;50.830;12.082;2023-03-23T01:14:19;0.68;;;0.63;;
11171;SDS011;5642;50.830;12.082;2023-03-23T01:16:49;0.70;;;0.70;;
11171;SDS011;5642;50.830;12.082;2023-03-23T01:19:16;0.50;;;0.50;;
11171;SDS011;5642;50.830;12.082;2023-03-23T01:21:48;0.65;;;0.65;;
11171;SDS011;5642;50.830;12.082;2023-03-23T01:24:15;0.55;;;0.55;;
11171;SDS011;5642;50.830;12.082;2023-03-23T01:26:42;0.55;;;0.55;;
11171;SDS011;5642;50.830;12.082;2023-03-23T01:29:08;0.55;;;0.55;;
11171;SDS011;5642;50.830;12.082;2023-03-23T01:31:34;0.52;;;0.52;;
11171;SDS011;5642;50.830;12.082;2023-03-23T01:34:05;0.65;;;0.55;;
11171;SDS011;5642;50.830;12.082;2023-03-23T01:36:32;0.47;;;0.47;;
11171;SDS011;5642;50.830;12.082;2023-03-23T01:39:03;0.60;;;0.60;;
11171;SDS011;5642;50.830;12.082;2023-03-23T01:41:39;1.38;;;0.40;;
11171;SDS011;5642;50.830;12.082;2023-03-23T01:46:49;0.60;;;0.50;;
11171;SDS011;5642;50.830;12.082;2023-03-23T01:49:21;0.60;;;0.60;;
11171;SDS011;5642;50.830;12.082;2023-03-23T01:51:57;0.60;;;0.60;;
11171;SDS011;5642;50.830;12.082;2023-03-23T01:54:29;0.70;;;0.70;;
11171;SDS011;5642;50.830;12.082;2023-03-23T01:56:59;0.60;;;0.60;;
11171;SDS011;5642;50.830;12.082;2023-03-23T01:59:30;1.23;;;0.70;;
11171;SDS011;5642;50.830;12.082;2023-03-23T02:02:01;0.70;;;0.70;;
11171;SDS011;5642;50.830;12.082;2023-03-23T02:04:28;3.08;;;0.60;;
11171;SDS011;5642;50.830;12.082;2023-03-23T02:06:58;0.77;;;0.70;;
11171;SDS011;5642;50.830;12.082;2023-03-23T02:09:27;0.50;;;0.50;;
11171;SDS011;5642;50.830;12.082;2023-03-23T02:12:02;0.60;;;0.60;;
11171;SDS011;5642;50.830;12.082;2023-03-23T02:14:28;0.60;;;0.60;;
11171;SDS011;5642;50.830;12.082;2023-03-23T02:17:08;1.27;;;0.75;;
11171;SDS011;5642;50.830;12.082;2023-03-23T02:25:56;0.73;;;0.73;;
11171;SDS011;5642;50.830;12.082;2023-03-23T02:37:36;0.80;;;0.80;;
11171;SDS011;5642;50.830;12.082;2023-03-23T02:40:24;0.90;;;0.90;;
11171;SDS011;5642;50.830;12.082;2023-03-23T02:43:14;0.90;;;0.90;;
11171;SDS011;5642;50.830;12.082;2023-03-23T02:46:04;1.08;;;1.00;;
11171;SDS011;5642;50.830;12.082;2023-03-23T02:48:36;0.88;;;0.85;;
11171;SDS011;5642;50.830;12.082;2023-03-23T02:51:10;0.88;;;0.88;;
11171;SDS011;5642;50.830;12.082;2023-03-23T02:53:40;1.95;;;0.80;;
11171;SDS011;5642;50.830;12.082;2023-03-23T02:56:10;0.80;;;0.80;;
11171;SDS011;5642;50.830;12.082;2023-03-23T02:58:41;0.77;;;0.77;;
11171;SDS011;5642;50.830;12.082;2023-03-23T03:03:57;0.75;;;0.70;;
11171;SDS011;5642;50.830;12.082;2023-03-23T03:06:31;0.65;;;0.65;;
11171;SDS011;5642;50.830;12.082;2023-03-23T03:09:15;0.80;;;0.65;;
11171;SDS011;5642;50.830;12.082;2023-03-23T03:11:47;0.77;;;0.77;;
11171;SDS011;5642;50.830;12.082;2023-03-23T03:14:21;0.80;;;0.80;;
11171;SDS011;5642;50.830;12.082;2023-03-23T03:16:53;0.90;;;0.90;;
11171;SDS011;5642;50.830;12.082;2023-03-23T03:19:30;0.82;;;0.82;;
11171;SDS011;5642;50.830;12.082;2023-03-23T03:22:01;0.55;;;0.55;;
11171;SDS011;5642;50.830;12.082;2023-03-23T03:24:38;0.80;;;0.80;;
11171;SDS011;5642;50.830;12.082;2023-03-23T03:27:12;0.98;;;0.90;;
11171;SDS011;5642;50.830;12.082;2023-03-23T03:29:43;0.95;;;0.80;;
11171;SDS011;5642;50.830;12.082;2023-03-23T03:32:14;0.70;;;0.70;;
11171;SDS011;5642;50.830;12.082;2023-03-23T03:34:44;0.57;;;0.57;;
11171;SDS011;5642;50.830;12.082;2023-03-23T03:37:10;0.80;;;0.80;;
11171;SDS011;5642;50.830;12.082;2023-03-23T03:39:37;1.02;;;1.02;;
11171;SDS011;5642;50.830;12.082;2023-03-23T03:42:04;0.68;;;0.68;;
11171;SDS011;5642;50.830;12.082;2023-03-23T03:44:32;1.10;;;1.00;;
11171;SDS011;5642;50.830;12.082;2023-03-23T03:46:59;0.90;;;0.90;;
11171;SDS011;5642;50.830;12.082;2023-03-23T03:49:25;0.80;;;0.80;;
11171;SDS011;5642;50.830;12.082;2023-03-23T03:51:52;1.15;;;0.82;;
11171;SDS011;5642;50.830;12.082;2023-03-23T03:54:18;0.90;;;0.80;;
11171;SDS011;5642;50.830;12.082;2023-03-23T03:56:44;0.80;;;0.80;;
11171;SDS011;5642;50.830;12.082;2023-03-23T03:59:11;0.80;;;0.80;;
11171;SDS011;5642;50.830;12.082;2023-03-23T04:01:38;0.80;;;0.80;;
11171;SDS011;5642;50.830;12.082;2023-03-23T04:04:04;0.70;;;0.70;;
11171;SDS011;5642;50.830;12.082;2023-03-23T04:06:34;0.77;;;0.77;;
11171;SDS011;5642;50.830;12.082;2023-03-23T04:09:02;0.73;;;0.73;;
11171;SDS011;5642;50.830;12.082;2023-03-23T04:11:32;0.70;;;0.70;;
11171;SDS011;5642;50.830;12.082;2023-03-23T04:13:58;0.70;;;0.70;;
11171;SDS011;5642;50.830;12.082;2023-03-23T04:16:24;1.10;;;0.70;;
11171;SDS011;5642;50.830;12.082;2023-03-23T04:18:51;0.60;;;0.60;;
11171;SDS011;5642;50.830;12.082;2023-03-23T04:21:17;0.77;;;0.77;;
11171;SDS011;5642;50.830;12.082;2023-03-23T04:23:44;0.65;;;0.65;;
11171;SDS011;5642;50.830;12.082;2023-03-23T04:26:10;0.52;;;0.50;;
11171;SDS011;5642;50.830;12.082;2023-03-23T04:28:39;2.13;;;1.73;;
11171;SDS011;5642;50.830;12.082;2023-03-23T04:31:06;1.20;;;1.10;;
11171;SDS011;5642;50.830;12.082;2023-03-23T04:33:34;0.98;;;0.98;;
11171;SDS011;5642;50.830;12.082;2023-03-23T04:36:05;0.88;;;0.85;;
11171;SDS011;5642;50.830;12.082;2023-03-23T04:38:32;1.20;;;1.10;;
11171;SDS011;5642;50.830;12.082;2023-03-23T04:40:59;1.88;;;1.10;;
11171;SDS011;5642;50.830;12.082;2023-03-23T04:43:28;0.68;;;0.68;;
11171;SDS011;5642;50.830;12.082;2023-03-23T04:45:54;0.90;;;0.90;;
11171;SDS011;5642;50.830;12.082;2023-03-23T04:48:22;0.95;;;0.93;;
11171;SDS011;5642;50.830;12.082;2023-03-23T04:50:49;1.55;;;0.90;;
11171;SDS011;5642;50.830;12.082;2023-03-23T04:53:16;0.80;;;0.80;;
11171;SDS011;5642;50.830;12.082;2023-03-23T04:55:43;0.68;;;0.68;;
11171;SDS011;5642;50.830;12.082;2023-03-23T04:58:10;0.65;;;0.65;;
11171;SDS011;5642;50.830;12.082;2023-03-23T05:00:39;0.75;;;0.75;;
11171;SDS011;5642;50.830;12.082;2023-03-23T05:03:09;1.48;;;0.70;;
11171;SDS011;5642;50.830;12.082;2023-03-23T05:05:38;1.02;;;0.93;;
11171;SDS011;5642;50.830;12.082;2023-03-23T05:08:05;1.65;;;0.90;;
11171;SDS011;5642;50.830;12.082;2023-03-23T05:10:31;1.05;;;0.80;;
11171;SDS011;5642;50.830;12.082;2023-03-23T05:12:58;1.52;;;0.80;;
11171;SDS011;5642;50.830;12.082;2023-03-23T05:15:25;0.60;;;0.60;;
11171;SDS011;5642;50.830;12.082;2023-03-23T05:17:51;0.75;;;0.75;;
11171;SDS011;5642;50.830;12.082;2023-03-23T05:20:18;0.95;;;0.90;;
11171;SDS011;5642;50.830;12.082;2023-03-23T05:22:45;0.77;;;0.60;;
11171;SDS011;5642;50.830;12.082;2023-03-23T05:25:16;1.75;;;0.80;;
11171;SDS011;5642;50.830;12.082;2023-03-23T05:27:47;0.70;;;0.70;;
11171;SDS011;5642;50.830;12.082;2023-03-23T05:30:19;0.82;;;0.80;;
11171;SDS011;5642;50.830;12.082;2023-03-23T05:32:47;0.73;;;0.70;;
11171;SDS011;5642;50.830;12.082;2023-03-23T05:35:16;0.75;;;0.75;;
11171;SDS011;5642;50.830;12.082;2023-03-23T05:37:43;0.70;;;0.70;;
11171;SDS011;5642;50.830;12.082;2023-03-23T05:40:10;1.17;;;0.70;;
11171;SDS011;5642;50.830;12.082;2023-03-23T05:42:38;0.80;;;0.80;;
11171;SDS011;5642;50.830;12.082;2023-03-23T05:45:08;0.68;;;0.68;;
11171;SDS011;5642;50.830;12.082;2023-03-23T05:47:38;0.80;;;0.80;;
11171;SDS011;5642;50.830;12.082;2023-03-23T05:50:08;1.02;;;0.80;;
11171;SDS011;5642;50.830;12.082;2023-03-23T05:52:37;0.73;;;0.60;;
11171;SDS011;5642;50.830;12.082;2023-03-23T05:55:05;1.35;;;0.70;;
11171;SDS011;5642;50.830;12.082;2023-03-23T05:57:34;1.55;;;0.75;;
11171;SDS011;5642;50.830;12.082;2023-03-23T06:00:03;0.70;;;0.70;;
11171;SDS011;5642;50.830;12.082;2023-03-23T06:02:38;0.50;;;0.50;;
11171;SDS011;5642;50.830;12.082;2023-03-23T06:05:05;0.70;;;0.70;;
11171;SDS011;5642;50.830;12.082;2023-03-23T06:07:34;0.70;;;0.70;;
11171;SDS011;5642;50.830;12.082;2023-03-23T06:10:01;0.60;;;0.60;;
11171;SDS011;5642;50.830;12.082;2023-03-23T06:12:28;0.60;;;0.60;;
11171;SDS011;5642;50.830;12.082;2023-03-23T06:14:54;0.70;;;0.70;;
11171;SDS011;5642;50.830;12.082;2023-03-23T06:17:23;0.60;;;0.60;;
11171;SDS011;5642;50.830;12.082;2023-03-23T06:19:50;0.70;;;0.70;;
11171;SDS011;5642;50.830;12.082;2023-03-23T06:22:17;0.70;;;0.70;;
11171;SDS011;5642;50.830;12.082;2023-03-23T06:24:45;1.10;;;0.90;;
11171;SDS011;5642;50.830;12.082;2023-03-23T06:27:12;0.73;;;0.70;;
11171;SDS011;5642;50.830;12.082;2023-03-23T06:29:39;1.15;;;0.80;;
11171;SDS011;5642;50.830;12.082;2023-03-23T06:32:06;0.70;;;0.70;;
11171;SDS011;5642;50.830;12.082;2023-03-23T06:34:33;0.80;;;0.70;;
11171;SDS011;5642;50.830;12.082;2023-03-23T06:37:04;0.77;;;0.60;;
11171;SDS011;5642;50.830;12.082;2023-03-23T06:39:30;0.65;;;0.65;;
11171;SDS011;5642;50.830;12.082;2023-03-23T06:41:58;0.52;;;0.52;;
11171;SDS011;5642;50.830;12.082;2023-03-23T06:44:26;0.70;;;0.70;;
11171;SDS011;5642;50.830;12.082;2023-03-23T06:46:52;0.90;;;0.68;;
11171;SDS011;5642;50.830;12.082;2023-03-23T06:49:19;1.00;;;0.73;;
11171;SDS011;5642;50.830;12.082;2023-03-23T06:51:46;0.88;;;0.88;;
11171;SDS011;5642;50.830;12.082;2023-03-23T06:54:13;0.60;;;0.60;;
11171;SDS011;5642;50.830;12.082;2023-03-23T06:56:41;0.52;;;0.52;;
11171;SDS011;5642;50.830;12.082;2023-03-23T06:59:08;0.70;;;0.70;;
11171;SDS011;5642;50.830;12.082;2023-03-23T07:01:36;0.50;;;0.50;;
11171;SDS011;5642;50.830;12.082;2023-03-23T07:04:06;0.75;;;0.75;;
11171;SDS011;5642;50.830;12.082;2023-03-23T07:06:35;0.70;;;0.45;;
11171;SDS011;5642;50.830;12.082;2023-03-23T07:09:03;0.50;;;0.50;;
11171;SDS011;5642;50.830;12.082;2023-03-23T07:11:31;0.63;;;0.63;;
11171;SDS011;5642;50.830;12.082;2023-03-23T07:13:59;0.70;;;0.70;;
11171;SDS011;5642;50.830;12.082;2023-03-23T07:16:25;0.63;;;0.63;;
11171;SDS011;5642;50.830;12.082;2023-03-23T07:18:53;0.55;;;0.55;;
11171;SDS011;5642;50.830;12.082;2023-03-23T07:21:20;0.60;;;0.60;;
11171;SDS011;5642;50.830;12.082;2023-03-23T07:23:47;0.85;;;0.70;;
11171;SDS011;5642;50.830;12.082;2023-03-23T07:26:15;0.75;;;0.70;;
11171;SDS011;5642;50.830;12.082;2023-03-23T07:28:41;0.77;;;0.77;;
11171;SDS011;5642;50.830;12.082;2023-03-23T07:31:08;0.60;;;0.60;;
11171;SDS011;5642;50.830;12.082;2023-03-23T07:33:35;0.60;;;0.60;;
11171;SDS011;5642;50.830;12.082;2023-03-23T07:36:01;0.50;;;0.50;;
11171;SDS011;5642;50.830;12.082;2023-03-23T07:38:29;0.68;;;0.68;;
11171;SDS011;5642;50.830;12.082;2023-03-23T07:40:57;0.63;;;0.60;;
11171;SDS011;5642;50.830;12.082;2023-03-23T07:43:25;0.70;;;0.70;;
11171;SDS011;5642;50.830;12.082;2023-03-23T07:45:53;0.60;;;0.60;;
11171;SDS011;5642;50.830;12.082;2023-03-23T07:48:20;0.63;;;0.63;;
11171;SDS011;5642;50.830;12.082;2023-03-23T07:50:48;1.00;;;0.65;;
11171;SDS011;5642;50.830;12.082;2023-03-23T07:53:17;0.75;;;0.75;;
11171;SDS011;5642;50.830;12.082;2023-03-23T07:55:45;0.70;;;0.70;;
11171;SDS011;5642;50.830;12.082;2023-03-23T07:58:12;0.63;;;0.63;;
11171;SDS011;5642;50.830;12.082;2023-03-23T08:00:53;0.60;;;0.60;;
11171;SDS011;5642;50.830;12.082;2023-03-23T08:03:21;0.80;;;0.80;;
11171;SDS011;5642;50.830;12.082;2023-03-23T08:05:47;0.70;;;0.70;;
11171;SDS011;5642;50.830;12.082;2023-03-23T08:08:14;0.95;;;0.88;;
11171;SDS011;5642;50.830;12.082;2023-03-23T08:10:42;0.93;;;0.80;;
11171;SDS011;5642;50.830;12.082;2023-03-23T08:13:09;0.73;;;0.73;;
11171;SDS011;5642;50.830;12.082;2023-03-23T08:15:41;0.80;;;0.80;;
11171;SDS011;5642;50.830;12.082;2023-03-23T08:18:08;0.95;;;0.73;;
11171;SDS011;5642;50.830;12.082;2023-03-23T08:20:36;0.70;;;0.70;;
11171;SDS011;5642;50.830;12.082;2023-03-23T08:23:05;0.73;;;0.73;;
11171;SDS011;5642;50.830;12.082;2023-03-23T08:25:35;1.08;;;0.82;;
11171;SDS011;5642;50.830;12.082;2023-03-23T08:28:07;0.73;;;0.60;;
11171;SDS011;5642;50.830;12.082;2023-03-23T08:30:38;0.75;;;0.75;;
11171;SDS011;5642;50.830;12.082;2023-03-23T08:33:13;0.82;;;0.82;;
11171;SDS011;5642;50.830;12.082;2023-03-23T08:35:41;0.70;;;0.70;;
11171;SDS011;5642;50.830;12.082;2023-03-23T08:38:15;0.80;;;0.80;;
11171;SDS011;5642;50.830;12.082;2023-03-23T08:40:43;0.88;;;0.88;;
11171;SDS011;5642;50.830;12.082;2023-03-23T08:43:12;0.73;;;0.73;;
11171;SDS011;5642;50.830;12.082;2023-03-23T08:45:43;0.90;;;0.73;;
11171;SDS011;5642;50.830;12.082;2023-03-23T08:48:12;0.80;;;0.80;;
11171;SDS011;5642;50.830;12.082;2023-03-23T08:50:40;0.60;;;0.60;;
11171;SDS011;5642;50.830;12.082;2023-03-23T08:53:07;0.90;;;0.85;;
11171;SDS011;5642;50.830;12.082;2023-03-23T08:55:36;0.80;;;0.80;;
11171;SDS011;5642;50.830;12.082;2023-03-23T08:58:03;0.70;;;0.70;;
11171;SDS011;5642;50.830;12.082;2023-03-23T09:00:30;0.77;;;0.77;;
11171;SDS011;5642;50.830;12.082;2023-03-23T09:02:56;0.60;;;0.60;;
11171;SDS011;5642;50.830;12.082;2023-03-23T09:05:25;3.67;;;1.02;;
11171;SDS011;5642;50.830;12.082;2023-03-23T09:07:55;0.68;;;0.68;;
11171;SDS011;5642;50.830;12.082;2023-03-23T09:10:27;0.60;;;0.60;;
11171;SDS011;5642;50.830;12.082;2023-03-23T09:12:57;0.60;;;0.60;;
11171;SDS011;5642;50.830;12.082;2023-03-23T09:15:24;0.70;;;0.70;;
11171;SDS011;5642;50.830;12.082;2023-03-23T09:17:53;1.02;;;0.60;;
11171;SDS011;5642;50.830;12.082;2023-03-23T09:20:22;0.77;;;0.77;;
11171;SDS011;5642;50.830;12.082;2023-03-23T09:22:56;0.68;;;0.68;;
11171;SDS011;5642;50.830;12.082;2023-03-23T09:25:25;0.75;;;0.75;;
11171;SDS011;5642;50.830;12.082;2023-03-23T09:27:54;1.67;;;1.13;;
11171;SDS011;5642;50.830;12.082;2023-03-23T09:30:26;0.60;;;0.60;;
11171;SDS011;5642;50.830;12.082;2023-03-23T09:32:54;0.70;;;0.70;;
11171;SDS011;5642;50.830;12.082;2023-03-23T09:35:22;0.70;;;0.70;;
11171;SDS011;5642;50.830;12.082;2023-03-23T09:37:51;0.70;;;0.70;;
11171;SDS011;5642;50.830;12.082;2023-03-23T09:40:24;1.15;;;0.80;;
11171;SDS011;5642;50.830;12.082;2023-03-23T09:48:52;0.73;;;0.73;;
11171;SDS011;5642;50.830;12.082;2023-03-23T09:51:45;0.88;;;0.60;;
11171;SDS011;5642;50.830;12.082;2023-03-23T09:54:29;0.85;;;0.82;;
11171;SDS011;5642;50.830;12.082;2023-03-23T09:57:02;0.50;;;0.50;;
11171;SDS011;5642;50.830;12.082;2023-03-23T09:59:49;0.60;;;0.60;;
11171;SDS011;5642;50.830;12.082;2023-03-23T10:02:41;0.60;;;0.60;;
11171;SDS011;5642;50.830;12.082;2023-03-23T10:08:23;0.75;;;0.68;;
11171;SDS011;5642;50.830;12.082;2023-03-23T10:22:14;0.77;;;0.77;;
11171;SDS011;5642;50.830;12.082;2023-03-23T10:24:55;0.60;;;0.60;;
11171;SDS011;5642;50.830;12.082;2023-03-23T10:30:37;0.90;;;0.65;;
11171;SDS011;5642;50.830;12.082;2023-03-23T10:33:19;0.50;;;0.50;;
11171;SDS011;5642;50.830;12.082;2023-03-23T10:36:03;0.50;;;0.50;;
11171;SDS011;5642;50.830;12.082;2023-03-23T10:39:00;0.63;;;0.63;;
11171;SDS011;5642;50.830;12.082;2023-03-23T10:41:33;0.43;;;0.43;;
11171;SDS011;5642;50.830;12.082;2023-03-23T10:44:00;0.50;;;0.50;;
11171;SDS011;5642;50.830;12.082;2023-03-23T10:49:43;0.70;;;0.70;;
11171;SDS011;5642;50.830;12.082;2023-03-23T10:55:08;0.50;;;0.50;;
11171;SDS011;5642;50.830;12.082;2023-03-23T11:00:49;1.20;;;1.00;;
11171;SDS011;5642;50.830;12.082;2023-03-23T11:03:24;0.70;;;0.70;;
11171;SDS011;5642;50.830;12.082;2023-03-23T11:06:01;0.98;;;0.73;;
11171;SDS011;5642;50.830;12.082;2023-03-23T11:08:31;0.88;;;0.80;;
11171;SDS011;5642;50.830;12.082;2023-03-23T11:11:30;1.27;;;0.60;;
11171;SDS011;5642;50.830;12.082;2023-03-23T11:14:13;0.70;;;0.70;;
11171;SDS011;5642;50.830;12.082;2023-03-23T11:16:59;0.82;;;0.60;;
11171;SDS011;5642;50.830;12.082;2023-03-23T11:19:31;1.10;;;1.00;;
11171;SDS011;5642;50.830;12.082;2023-03-23T11:22:08;3.33;;;0.90;;
11171;SDS011;5642;50.830;12.082;2023-03-23T11:24:47;0.93;;;0.90;;
11171;SDS011;5642;50.830;12.082;2023-03-23T11:27:20;0.70;;;0.70;;
11171;SDS011;5642;50.830;12.082;2023-03-23T11:29:53;0.80;;;0.80;;
11171;SDS011;5642;50.830;12.082;2023-03-23T11:32:31;0.60;;;0.60;;
11171;SDS011;5642;50.830;12.082;2023-03-23T11:35:06;0.65;;;0.65;;
11171;SDS011;5642;50.830;12.082;2023-03-23T11:37:47;0.80;;;0.80;;
11171;SDS011;5642;50.830;12.082;2023-03-23T11:40:24;0.63;;;0.63;;
11171;SDS011;5642;50.830;12.082;2023-03-23T11:43:29;1.17;;;0.70;;
11171;SDS011;5642;50.830;12.082;2023-03-23T11:46:05;0.50;;;0.50;;
11171;SDS011;5642;50.830;12.082;2023-03-23T11:49:10;0.70;;;0.70;;
11171;SDS011;5642;50.830;12.082;2023-03-23T11:51:50;0.60;;;0.60;;
11171;SDS011;5642;50.830;12.082;2023-03-23T11:57:06;0.70;;;0.70;;
11171;SDS011;5642;50.830;12.082;2023-03-23T11:59:37;0.50;;;0.50;;
11171;SDS011;5642;50.830;12.082;2023-03-23T12:11:13;0.50;;;0.50;;
11171;SDS011;5642;50.830;12.082;2023-03-23T12:13:54;0.98;;;0.52;;
11171;SDS011;5642;50.830;12.082;2023-03-23T12:16:52;0.80;;;0.52;;
11171;SDS011;5642;50.830;12.082;2023-03-23T12:19:41;0.40;;;0.40;;
11171;SDS011;5642;50.830;12.082;2023-03-23T12:28:14;0.32;;;0.32;;
11171;SDS011;5642;50.830;12.082;2023-03-23T12:30:55;0.52;;;0.52;;
11171;SDS011;5642;50.830;12.082;2023-03-23T12:33:34;0.43;;;0.43;;
11171;SDS011;5642;50.830;12.082;2023-03-23T12:38:54;0.65;;;0.65;;
11171;SDS011;5642;50.830;12.082;2023-03-23T12:44:11;0.38;;;0.38;;
11171;SDS011;5642;50.830;12.082;2023-03-23T12:46:46;0.88;;;0.50;;
11171;SDS011;5642;50.830;12.082;2023-03-23T12:52:26;0.50;;;0.50;;
11171;SDS011;5642;50.830;12.082;2023-03-23T12:57:56;0.50;;;0.50;;
11171;SDS011;5642;50.830;12.082;2023-03-23T13:00:33;0.55;;;0.52;;
11171;SDS011;5642;50.830;12.082;2023-03-23T13:05:52;0.40;;;0.40;;
11171;SDS011;5642;50.830;12.082;2023-03-23T13:08:26;0.40;;;0.40;;
11171;SDS011;5642;50.830;12.082;2023-03-23T13:10:58;0.40;;;0.40;;
11171;SDS011;5642;50.830;12.082;2023-03-23T13:13:46;0.50;;;0.50;;
11171;SDS011;5642;50.830;12.082;2023-03-23T13:19:00;0.50;;;0.50;;
11171;SDS011;5642;50.830;12.082;2023-03-23T13:21:31;0.40;;;0.40;;
11171;SDS011;5642;50.830;12.082;2023-03-23T13:24:08;0.50;;;0.50;;
11171;SDS011;5642;50.830;12.082;2023-03-23T13:26:40;0.50;;;0.50;;
11171;SDS011;5642;50.830;12.082;2023-03-23T13:29:14;0.40;;;0.40;;
11171;SDS011;5642;50.830;12.082;2023-03-23T13:31:49;0.40;;;0.40;;
11171;SDS011;5642;50.830;12.082;2023-03-23T13:34:21;0.40;;;0.40;;
11171;SDS011;5642;50.830;12.082;2023-03-23T13:36:56;0.40;;;0.40;;
11171;SDS011;5642;50.830;12.082;2023-03-23T13:39:37;0.50;;;0.47;;
11171;SDS011;5642;50.830;12.082;2023-03-23T13:42:22;0.55;;;0.55;;
11171;SDS011;5642;50.830;12.082;2023-03-23T13:49:52;0.40;;;0.40;;
11171;SDS011;5642;50.830;12.082;2023-03-23T13:52:50;0.47;;;0.47;;
11171;SDS011;5642;50.830;12.082;2023-03-23T13:55:21;0.40;;;0.40;;
11171;SDS011;5642;50.830;12.082;2023-03-23T14:00:33;0.85;;;0.40;;
11171;SDS011;5642;50.830;12.082;2023-03-23T14:10:54;0.30;;;0.30;;
11171;SDS011;5642;50.830;12.082;2023-03-23T14:13:32;0.43;;;0.43;;
11171;SDS011;5642;50.830;12.082;2023-03-23T14:16:05;0.28;;;0.28;;
11171;SDS011;5642;50.830;12.082;2023-03-23T14:18:41;0.38;;;0.38;;
11171;SDS011;5642;50.830;12.082;2023-03-23T14:21:15;0.40;;;0.40;;
11171;SDS011;5642;50.830;12.082;2023-03-23T14:23:43;0.45;;;0.45;;
11171;SDS011;5642;50.830;12.082;2023-03-23T14:26:11;0.20;;;0.20;;
11171;SDS011;5642;50.830;12.082;2023-03-23T14:28:43;0.30;;;0.30;;
11171;SDS011;5642;50.830;12.082;2023-03-23T14:31:15;0.35;;;0.35;;
11171;SDS011;5642;50.830;12.082;2023-03-23T14:33:46;0.60;;;0.60;;
11171;SDS011;5642;50.830;12.082;2023-03-23T14:36:14;0.30;;;0.30;;
11171;SDS011;5642;50.830;12.082;2023-03-23T14:38:48;0.40;;;0.40;;
11171;SDS011;5642;50.830;12.082;2023-03-23T14:41:22;0.40;;;0.40;;
11171;SDS011;5642;50.830;12.082;2023-03-23T14:43:48;0.60;;;0.50;;
11171;SDS011;5642;50.830;12.082;2023-03-23T14:46:14;0.43;;;0.43;;
11171;SDS011;5642;50.830;12.082;2023-03-23T14:48:42;0.45;;;0.45;;
11171;SDS011;5642;50.830;12.082;2023-03-23T14:51:14;0.50;;;0.50;;
11171;SDS011;5642;50.830;12.082;2023-03-23T14:53:44;0.47;;;0.47;;
11171;SDS011;5642;50.830;12.082;2023-03-23T14:56:20;0.57;;;0.57;;
11171;SDS011;5642;50.830;12.082;2023-03-23T14:58:50;0.45;;;0.40;;
11171;SDS011;5642;50.830;12.082;2023-03-23T15:01:27;0.63;;;0.50;;
11171;SDS011;5642;50.830;12.082;2023-03-23T15:03:56;0.50;;;0.50;;
11171;SDS011;5642;50.830;12.082;2023-03-23T15:06:26;0.50;;;0.50;;
11171;SDS011;5642;50.830;12.082;2023-03-23T15:08:56;0.52;;;0.30;;
11171;SDS011;5642;50.830;12.082;2023-03-23T15:11:30;1.38;;;0.43;;
11171;SDS011;5642;50.830;12.082;2023-03-23T15:14:00;0.55;;;0.50;;
11171;SDS011;5642;50.830;12.082;2023-03-23T15:16:36;0.40;;;0.40;;
11171;SDS011;5642;50.830;12.082;2023-03-23T15:19:06;1.85;;;0.50;;
11171;SDS011;5642;50.830;12.082;2023-03-23T15:24:49;0.52;;;0.52;;
11171;SDS011;5642;50.830;12.082;2023-03-23T15:27:29;0.50;;;0.50;;
11171;SDS011;5642;50.830;12.082;2023-03-23T15:29:58;0.90;;;0.40;;
11171;SDS011;5642;50.830;12.082;2023-03-23T15:32:30;0.60;;;0.60;;
11171;SDS011;5642;50.830;12.082;2023-03-23T15:35:11;0.47;;;0.47;;
11171;SDS011;5642;50.830;12.082;2023-03-23T15:37:46;0.50;;;0.50;;
11171;SDS011;5642;50.830;12.082;2023-03-23T15:40:16;0.55;;;0.55;;
11171;SDS011;5642;50.830;12.082;2023-03-23T15:42:44;0.60;;;0.60;;
11171;SDS011;5642;50.830;12.082;2023-03-23T15:50:11;0.50;;;0.50;;
11171;SDS011;5642;50.830;12.082;2023-03-23T15:52:40;0.40;;;0.40;;
11171;SDS011;5642;50.830;12.082;2023-03-23T15:55:21;0.40;;;0.40;;
11171;SDS011;5642;50.830;12.082;2023-03-23T15:57:50;0.40;;;0.40;;
11171;SDS011;5642;50.830;12.082;2023-03-23T16:00:18;0.50;;;0.50;;
11171;SDS011;5642;50.830;12.082;2023-03-23T16:02:46;0.50;;;0.50;;
11171;SDS011;5642;50.830;12.082;2023-03-23T16:05:15;0.57;;;0.40;;
11171;SDS011;5642;50.830;12.082;2023-03-23T16:07:41;0.32;;;0.32;;
11171;SDS011;5642;50.830;12.082;2023-03-23T16:10:13;0.30;;;0.30;;
11171;SDS011;5642;50.830;12.082;2023-03-23T16:12:44;0.65;;;0.60;;
11171;SDS011;5642;50.830;12.082;2023-03-23T16:15:11;0.40;;;0.40;;
11171;SDS011;5642;50.830;12.082;2023-03-23T16:17:38;0.50;;;0.50;;
11171;SDS011;5642;50.830;12.082;2023-03-23T16:20:09;0.40;;;0.40;;
11171;SDS011;5642;50.830;12.082;2023-03-23T16:22:40;0.40;;;0.40;;
11171;SDS011;5642;50.830;12.082;2023-03-23T16:25:07;0.52;;;0.50;;
11171;SDS011;5642;50.830;12.082;2023-03-23T16:27:34;0.43;;;0.43;;
11171;SDS011;5642;50.830;12.082;2023-03-23T16:30:02;0.50;;;0.50;;
11171;SDS011;5642;50.830;12.082;2023-03-23T16:32:45;0.40;;;0.40;;
11171;SDS011;5642;50.830;12.082;2023-03-23T16:35:14;0.40;;;0.40;;
11171;SDS011;5642;50.830;12.082;2023-03-23T16:37:48;0.73;;;0.60;;
11171;SDS011;5642;50.830;12.082;2023-03-23T16:40:16;0.60;;;0.60;;
11171;SDS011;5642;50.830;12.082;2023-03-23T16:42:43;1.85;;;0.60;;
11171;SDS011;5642;50.830;12.082;2023-03-23T16:45:10;0.65;;;0.65;;
11171;SDS011;5642;50.830;12.082;2023-03-23T16:47:40;0.60;;;0.60;;
11171;SDS011;5642;50.830;12.082;2023-03-23T16:50:07;0.70;;;0.70;;
11171;SDS011;5642;50.830;12.082;2023-03-23T16:52:40;0.70;;;0.70;;
11171;SDS011;5642;50.830;12.082;2023-03-23T16:55:08;0.60;;;0.60;;
11171;SDS011;5642;50.830;12.082;2023-03-23T16:57:35;0.60;;;0.60;;
11171;SDS011;5642;50.830;12.082;2023-03-23T17:00:03;0.60;;;0.60;;
11171;SDS011;5642;50.830;12.082;2023-03-23T17:02:34;0.50;;;0.50;;